Time;durP1;ratioP1;P1;durP2;ratioP2;P2;SDS_P1;SDS_P2;PMS_P1;PMS_P2;Temp;Humidity;BMP_temperature;BMP_pressure;BME280_temperature;BME280_humidity;BME280_pressure;Samples;Min_cycle;Max_cycle;Signal;HPM_P1;HPM_P2
2021/12/24 00:01:21;;;;;;;;;36.75;29.00;;;;;14.26;74.55;100735.63;5039875;28;62009;-75
2021/12/24 00:03:47;;;;;;;;;37.50;29.00;;;;;14.30;74.40;100742.78;5036929;28;64619;-75
2021/12/24 00:06:13;;;;;;;;;37.00;31.25;;;;;14.27;74.63;100745.38;5036041;28;61910;-75
2021/12/24 00:08:39;;;;;;;;;35.75;26.00;;;;;14.26;74.73;100740.91;5041593;28;61882;-75
2021/12/24 00:11:06;;;;;;;;;41.50;28.75;;;;;14.26;75.08;100743.56;5041359;28;61852;-75
2021/12/24 00:13:38;;;;;;;;;30.75;27.75;;;;;14.21;75.47;100732.88;5044607;28;61867;-75
2021/12/24 00:16:27;;;;;;;;;29.75;26.25;;;;;14.17;75.75;100736.28;5064003;28;61970;-75
2021/12/24 00:19:03;;;;;;;;;27.25;20.75;;;;;14.25;75.28;100741.78;5060823;28;62130;-75
2021/12/24 00:35:15;;;;;;;;;33.75;26.75;;;;;14.35;76.80;100721.78;5053670;28;62006;-75
2021/12/24 00:37:43;;;;;;;;;27.75;24.25;;;;;14.38;76.57;100720.16;5060819;28;61886;-75
2021/12/24 00:40:19;;;;;;;;;34.00;27.75;;;;;14.42;76.64;100715.84;5062036;28;62137;-75
2021/12/24 00:42:55;;;;;;;;;31.75;27.00;;;;;14.46;76.33;100713.34;5060414;28;62192;-75
2021/12/24 00:45:25;;;;;;;;;35.25;27.75;;;;;14.51;75.91;100709.06;5031586;28;63910;-75
2021/12/24 00:47:52;;;;;;;;;30.75;26.25;;;;;14.52;76.12;100708.22;5058663;28;61831;-75
2021/12/24 00:50:22;;;;;;;;;29.00;29.00;;;;;14.56;75.73;100708.31;5061743;28;62035;-75
2021/12/24 00:52:52;;;;;;;;;30.00;24.25;;;;;14.55;75.93;100709.16;5034090;28;62009;-75
2021/12/24 00:55:23;;;;;;;;;32.25;24.00;;;;;14.59;75.79;100711.03;5056371;28;63881;-75
2021/12/24 00:57:54;;;;;;;;;34.50;25.75;;;;;14.63;75.76;100699.69;5060688;28;61894;-75
2021/12/24 01:00:25;;;;;;;;;37.25;27.75;;;;;14.63;75.29;100695.34;5049467;28;61812;-75
2021/12/24 01:02:52;;;;;;;;;34.50;27.50;;;;;14.63;75.46;100691.78;5035508;28;61834;-75
2021/12/24 01:05:20;;;;;;;;;33.50;27.00;;;;;14.65;75.10;100674.22;5041689;28;64902;-75
2021/12/24 01:07:46;;;;;;;;;30.50;25.50;;;;;14.67;75.40;100676.03;5039716;28;61756;-75
2021/12/24 01:10:14;;;;;;;;;31.50;25.50;;;;;14.69;74.81;100666.41;5028120;28;61953;-75
2021/12/24 01:12:40;;;;;;;;;38.25;30.25;;;;;14.69;75.05;100674.31;5024293;28;61986;-75
2021/12/24 01:15:06;;;;;;;;;28.75;26.25;;;;;14.69;74.99;100661.13;5042622;28;61830;-75
2021/12/24 01:17:42;;;;;;;;;41.75;31.50;;;;;14.72;74.97;100666.50;5058354;28;61845;-75
2021/12/24 01:23:34;;;;;;;;;37.75;30.75;;;;;14.73;75.08;100662.09;5060923;28;62036;-75
2021/12/24 01:26:06;;;;;;;;;43.25;31.25;;;;;14.73;74.86;100659.47;5058879;28;62140;-75
2021/12/24 01:44:48;;;;;;;;;35.75;30.50;;;;;14.67;75.27;100657.53;5060452;28;61883;-75
2021/12/24 01:47:14;;;;;;;;;29.75;26.00;;;;;14.66;74.97;100662.81;5057556;28;61864;-75
2021/12/24 01:49:39;;;;;;;;;34.25;29.25;;;;;14.67;75.23;100667.22;5032347;28;62141;-75
2021/12/24 01:52:05;;;;;;;;;33.50;22.50;;;;;14.65;75.72;100661.00;5057145;28;63699;-75
2021/12/24 01:54:31;;;;;;;;;30.75;24.50;;;;;14.67;75.45;100661.94;5059561;28;62272;-75
2021/12/24 01:56:57;;;;;;;;;34.50;26.25;;;;;14.65;75.33;100667.22;5026357;28;63604;-75
2021/12/24 01:59:23;;;;;;;;;23.00;18.50;;;;;14.65;75.36;100656.63;5027987;28;62014;-75
2021/12/24 02:01:49;;;;;;;;;34.00;27.00;;;;;14.68;75.16;100651.41;5023555;28;62047;-75
2021/12/24 02:04:16;;;;;;;;;29.75;24.00;;;;;14.69;75.24;100653.19;5041915;28;62082;-75
2021/12/24 02:06:42;;;;;;;;;28.25;22.75;;;;;14.71;74.96;100650.59;5034202;28;62831;-75
2021/12/24 02:09:08;;;;;;;;;31.50;23.00;;;;;14.74;74.80;100658.63;5042563;28;61883;-75
2021/12/24 02:11:38;;;;;;;;;31.00;27.00;;;;;14.75;74.87;100657.75;5042607;28;61926;-75
2021/12/24 02:14:09;;;;;;;;;30.75;23.00;;;;;14.76;75.01;100649.00;5039934;28;61766;-75
2021/12/24 02:16:48;;;;;;;;;31.75;23.25;;;;;14.76;74.84;100649.00;5039706;28;64684;-75
2021/12/24 02:30:10;;;;;;;;;28.50;21.00;;;;;14.66;75.20;100631.09;5035817;28;61693;-75
2021/12/24 02:32:40;;;;;;;;;26.25;23.50;;;;;14.70;75.41;100640.91;5040398;28;61787;-75
2021/12/24 02:35:06;;;;;;;;;36.50;25.50;;;;;14.67;75.62;100641.69;5058306;28;61969;-75
2021/12/24 02:37:31;;;;;;;;;25.00;21.00;;;;;14.66;75.57;100639.03;5060746;28;61791;-75
2021/12/24 02:39:57;;;;;;;;;31.00;23.50;;;;;14.60;76.01;100636.22;5053551;28;61870;-75
2021/12/24 02:42:23;;;;;;;;;33.75;26.00;;;;;14.61;75.90;100635.38;5045124;28;62379;-75
2021/12/24 02:44:50;;;;;;;;;25.75;24.75;;;;;14.61;76.25;100632.72;5051073;28;62035;-75
2021/12/24 02:55:03;;;;;;;;;29.75;25.00;;;;;14.73;75.57;100610.16;5060112;28;61786;-75
2021/12/24 02:57:31;;;;;;;;;33.25;25.75;;;;;14.73;75.36;100609.25;5061925;28;61859;-75
2021/12/24 03:00:06;;;;;;;;;32.75;23.25;;;;;14.78;75.58;100615.56;5076387;28;61891;-75
2021/12/24 03:02:31;;;;;;;;;35.50;23.25;;;;;14.78;75.21;100620.84;5056483;28;62122;-75
2021/12/24 03:04:58;;;;;;;;;33.00;24.75;;;;;14.81;75.22;100626.19;5060439;28;61840;-75
2021/12/24 03:07:23;;;;;;;;;31.75;23.25;;;;;14.80;75.13;100626.16;5058467;28;61813;-75
2021/12/24 03:09:49;;;;;;;;;36.25;32.00;;;;;14.81;75.27;100625.31;5059572;28;63329;-75
2021/12/24 03:12:14;;;;;;;;;32.75;26.75;;;;;14.79;75.12;100621.75;5061948;28;61728;-75
2021/12/24 03:14:40;;;;;;;;;32.00;24.00;;;;;14.82;75.09;100624.44;5077309;27;62129;-75
2021/12/24 03:17:11;;;;;;;;;29.25;23.75;;;;;14.82;75.15;100616.50;5056863;28;63645;-75
2021/12/24 03:19:37;;;;;;;;;38.25;29.00;;;;;14.81;74.93;100605.06;5050404;28;62010;-75
2021/12/24 03:22:24;;;;;;;;;30.00;24.00;;;;;14.79;75.00;100612.06;5047987;28;62135;-75
2021/12/24 03:24:49;;;;;;;;;38.25;28.50;;;;;14.76;74.64;100605.78;5060030;28;61847;-75
2021/12/24 03:27:15;;;;;;;;;27.00;24.50;;;;;14.77;74.73;100597.03;5058106;28;61991;-75
2021/12/24 03:29:41;;;;;;;;;27.50;23.50;;;;;14.79;74.63;100593.56;5056856;28;61763;-75
2021/12/24 03:32:07;;;;;;;;;29.75;23.25;;;;;14.81;74.45;100601.53;5060957;28;62187;-75
2021/12/24 03:34:34;;;;;;;;;30.25;23.75;;;;;14.81;74.81;100591.84;5057737;28;61941;-75
2021/12/24 03:37:00;;;;;;;;;27.00;21.75;;;;;14.81;74.44;100594.50;5059593;28;65127;-75
2021/12/24 03:39:26;;;;;;;;;36.50;30.25;;;;;14.81;74.88;100599.78;5060438;28;62172;-75
2021/12/24 03:41:52;;;;;;;;;28.75;26.00;;;;;14.82;74.49;100606.84;5049348;28;61680;-75
2021/12/24 03:44:19;;;;;;;;;17.50;16.00;;;;;14.80;74.73;100583.88;5050455;28;62123;-75
2021/12/24 03:46:56;;;;;;;;;30.75;24.75;;;;;14.79;74.50;100574.19;5065044;28;64772;-75
2021/12/24 03:49:34;;;;;;;;;29.00;25.75;;;;;14.82;74.51;100571.59;5043828;28;62669;-75
2021/12/24 03:52:16;;;;;;;;;28.00;22.50;;;;;14.83;74.61;100573.41;5058536;28;61907;-75
2021/12/24 03:54:59;;;;;;;;;25.00;22.00;;;;;14.83;74.77;100563.72;5062041;28;61955;-75
2021/12/24 03:57:30;;;;;;;;;33.00;23.25;;;;;14.84;74.83;100552.28;5057604;28;62542;-75
2021/12/24 03:59:58;;;;;;;;;34.00;26.25;;;;;14.84;74.67;100565.47;5057667;28;61754;-75
2021/12/24 04:02:24;;;;;;;;;29.25;24.75;;;;;14.85;74.89;100561.13;5056906;28;62190;-75
2021/12/24 04:04:50;;;;;;;;;31.25;25.75;;;;;14.82;75.10;100555.75;5041902;28;61881;-75
2021/12/24 04:07:16;;;;;;;;;32.00;26.25;;;;;14.86;74.88;100554.94;5067326;28;62724;-75
2021/12/24 04:09:49;;;;;;;;;26.50;24.00;;;;;14.84;75.15;100549.63;5063308;28;61820;-75
2021/12/24 04:12:15;;;;;;;;;29.00;28.00;;;;;14.86;75.04;100544.38;5073173;28;61981;-75
2021/12/24 04:14:40;;;;;;;;;29.50;24.25;;;;;14.86;74.92;100536.47;5075833;28;63571;-75
2021/12/24 04:17:07;;;;;;;;;39.00;27.25;;;;;14.86;75.02;100526.78;5053801;28;62734;-75
2021/12/24 04:25:03;;;;;;;;;26.50;20.75;;;;;14.87;74.70;100533.84;5058155;28;62045;-75
2021/12/24 04:27:30;;;;;;;;;26.00;23.00;;;;;14.83;75.02;100534.66;5059130;28;62021;-75
2021/12/24 04:30:04;;;;;;;;;21.25;17.25;;;;;14.80;75.25;100521.34;5058829;28;61752;-75
2021/12/24 04:32:47;;;;;;;;;32.75;25.50;;;;;14.79;75.07;100516.03;5057933;28;61788;-75
2021/12/24 05:04:24;;;;;;;;;26.50;21.50;;;;;14.80;75.42;100509.88;5059052;28;62045;-75
2021/12/24 05:06:56;;;;;;;;;33.00;20.75;;;;;14.78;75.48;100501.94;5053439;28;61756;-75
2021/12/24 05:09:24;;;;;;;;;32.75;26.50;;;;;14.80;75.28;100497.56;5070801;28;64729;-75
2021/12/24 05:11:49;;;;;;;;;25.75;23.25;;;;;14.79;75.41;100502.84;5058593;28;61746;-75
2021/12/24 05:14:15;;;;;;;;;29.50;24.25;;;;;14.82;75.44;100500.25;5063102;28;61993;-75
2021/12/24 05:16:51;;;;;;;;;28.50;25.00;;;;;14.81;75.63;100502.00;5056093;28;61914;-75
2021/12/24 05:21:49;;;;;;;;;30.00;25.00;;;;;14.81;75.77;100502.00;5064276;28;61750;-75
2021/12/24 05:24:17;;;;;;;;;25.50;20.00;;;;;14.85;75.42;100498.56;5063039;28;61659;-75
2021/12/24 05:26:48;;;;;;;;;28.25;19.50;;;;;14.88;75.36;100496.00;5060112;28;62325;-75
2021/12/24 05:29:15;;;;;;;;;27.00;22.50;;;;;14.85;75.47;100495.06;5060267;28;62110;-75
2021/12/24 05:31:41;;;;;;;;;41.50;25.25;;;;;14.83;76.08;100484.44;5061997;28;61936;-75
2021/12/24 05:34:07;;;;;;;;;30.75;21.25;;;;;14.83;76.06;100492.38;5059676;28;61775;-75
2021/12/24 05:36:33;;;;;;;;;32.25;23.00;;;;;14.86;75.79;100494.19;5061538;28;61809;-74
2021/12/24 05:38:59;;;;;;;;;31.75;25.25;;;;;14.85;75.77;100480.06;5061360;28;63117;-75
2021/12/24 05:41:26;;;;;;;;;27.25;24.00;;;;;14.92;75.84;100486.38;5053988;28;61901;-75
2021/12/24 05:43:52;;;;;;;;;28.25;24.00;;;;;14.87;75.96;100488.06;5074465;28;61881;-75
2021/12/24 05:46:17;;;;;;;;;29.50;20.50;;;;;14.88;76.14;100492.47;5050940;28;62030;-75
2021/12/24 05:48:43;;;;;;;;;22.25;20.25;;;;;14.88;76.56;100489.81;5046686;28;61983;-75
2021/12/24 05:51:09;;;;;;;;;22.00;14.25;;;;;14.87;76.43;100493.34;5061111;28;62108;-75
2021/12/24 05:53:36;;;;;;;;;25.75;22.25;;;;;14.86;76.57;100495.06;5060719;28;62040;-75
2021/12/24 05:56:02;;;;;;;;;21.75;17.25;;;;;14.85;76.61;100497.69;5055404;28;61991;-75
2021/12/24 05:58:27;;;;;;;;;28.75;23.00;;;;;14.87;76.69;100520.66;5050715;28;62834;-75
2021/12/24 06:00:53;;;;;;;;;26.25;22.00;;;;;14.84;76.61;100511.75;5057435;28;61823;-75
2021/12/24 06:03:18;;;;;;;;;32.00;23.25;;;;;14.84;76.81;100512.63;5077354;28;62821;-75
2021/12/24 06:05:44;;;;;;;;;24.75;21.00;;;;;14.85;76.83;100508.25;5061408;28;61947;-75
2021/12/24 06:08:10;;;;;;;;;22.50;20.00;;;;;14.89;76.75;100503.06;5061541;28;61900;-74
2021/12/24 06:10:36;;;;;;;;;22.50;20.00;;;;;14.85;76.88;100503.88;5055139;28;62078;-74
2021/12/24 06:13:04;;;;;;;;;25.75;18.25;;;;;14.88;77.21;100509.19;5063386;28;61774;-74
2021/12/24 06:15:30;;;;;;;;;26.00;20.00;;;;;14.89;77.29;100513.66;5059871;28;61974;-75
2021/12/24 06:17:58;;;;;;;;;29.75;20.25;;;;;14.94;77.16;100511.09;5062465;28;61714;-74
2021/12/24 06:20:26;;;;;;;;;26.00;21.00;;;;;14.86;77.49;100508.28;5060061;28;62069;-75
2021/12/24 06:22:52;;;;;;;;;20.00;19.25;;;;;14.88;77.62;100509.19;5047689;28;62070;-74
2021/12/24 06:25:19;;;;;;;;;22.50;17.00;;;;;14.86;78.35;100502.09;5041567;28;61976;-75
2021/12/24 06:27:47;;;;;;;;;31.75;20.50;;;;;14.83;78.64;100502.94;5046750;28;62276;-74
2021/12/24 06:30:27;;;;;;;;;21.50;20.00;;;;;14.81;78.83;100494.06;5050388;28;62018;-74
2021/12/24 06:32:59;;;;;;;;;25.75;19.50;;;;;14.87;78.54;100498.63;5061896;28;61906;-74
2021/12/24 06:35:24;;;;;;;;;18.50;16.00;;;;;14.80;79.30;100499.31;5076089;28;62403;-74
2021/12/24 06:37:52;;;;;;;;;20.50;20.00;;;;;14.80;79.80;100484.34;5062510;28;62698;-74
2021/12/24 06:40:17;;;;;;;;;21.50;19.00;;;;;14.72;79.94;100480.66;5053814;28;61802;-74
2021/12/24 06:42:43;;;;;;;;;20.25;17.50;;;;;14.78;79.61;100482.53;5046403;28;61932;-74
2021/12/24 06:45:09;;;;;;;;;27.75;19.00;;;;;14.82;79.66;100482.63;5044050;28;61992;-75
2021/12/24 06:47:36;;;;;;;;;18.25;17.25;;;;;14.86;79.66;100481.84;5059947;28;62558;-74
2021/12/24 06:50:01;;;;;;;;;17.50;14.25;;;;;14.81;79.59;100482.63;5077428;28;61918;-75
2021/12/24 06:52:27;;;;;;;;;28.00;16.25;;;;;14.84;79.48;100487.97;5049391;28;62138;-74
2021/12/24 06:54:52;;;;;;;;;22.75;16.75;;;;;14.85;79.33;100480.06;5057831;28;61889;-74
2021/12/24 06:57:19;;;;;;;;;21.75;20.00;;;;;14.88;79.15;100484.53;5055805;28;62671;-74
2021/12/24 06:59:46;;;;;;;;;19.25;14.50;;;;;14.85;79.55;100479.19;5048093;28;62234;-75
2021/12/24 07:02:12;;;;;;;;;19.50;14.75;;;;;14.77;79.52;100473.72;5054832;28;62006;-74
2021/12/24 07:04:37;;;;;;;;;13.50;12.25;;;;;14.79;79.75;100485.22;5048341;28;62098;-75
2021/12/24 07:07:03;;;;;;;;;17.00;14.00;;;;;14.81;79.57;100482.63;5059066;28;62153;-74
2021/12/24 07:09:28;;;;;;;;;14.75;13.50;;;;;14.84;79.56;100482.69;5057948;28;62046;-74
2021/12/24 07:11:54;;;;;;;;;16.75;14.75;;;;;14.80;79.78;100479.06;5072134;28;61996;-75
2021/12/24 07:14:19;;;;;;;;;14.75;11.00;;;;;14.81;79.49;100474.69;5065046;28;61810;-74
2021/12/24 07:16:45;;;;;;;;;14.00;11.75;;;;;14.84;79.69;100480.03;5058219;28;61738;-75
2021/12/24 07:19:10;;;;;;;;;9.50;9.50;;;;;14.85;79.82;100487.13;5042347;28;61965;-75
2021/12/24 07:21:36;;;;;;;;;9.50;9.50;;;;;14.87;79.69;100481.00;5043577;28;61840;-74
2021/12/24 07:24:04;;;;;;;;;9.75;9.75;;;;;14.92;79.74;100475.81;5054012;28;61900;-74
2021/12/24 07:26:30;;;;;;;;;12.00;12.00;;;;;14.93;79.42;100475.84;5073316;28;64988;-74
2021/12/24 07:28:55;;;;;;;;;16.50;14.00;;;;;14.96;79.67;100477.66;5051675;28;62154;-74
2021/12/24 07:31:21;;;;;;;;;15.75;9.00;;;;;14.94;79.45;100484.66;5068794;27;61945;-74
2021/12/24 07:33:46;;;;;;;;;10.25;7.25;;;;;14.95;79.45;100494.38;5051271;28;61835;-75
2021/12/24 07:36:13;;;;;;;;;16.00;10.25;;;;;14.93;79.73;100481.16;5073660;28;64687;-74
2021/12/24 07:38:39;;;;;;;;;11.25;8.50;;;;;14.93;79.77;100480.22;5074385;28;61745;-74
2021/12/24 07:41:04;;;;;;;;;10.00;8.25;;;;;14.93;79.69;100474.94;5057505;28;61880;-74
2021/12/24 07:43:30;;;;;;;;;13.50;9.75;;;;;14.96;79.74;100480.31;5060850;28;62012;-74
2021/12/24 07:45:56;;;;;;;;;10.50;7.75;;;;;14.91;79.70;100469.66;5056590;28;61904;-74
2021/12/24 07:48:28;;;;;;;;;17.00;16.00;;;;;14.93;80.05;100470.56;5050711;28;61831;-74
2021/12/24 07:53:22;;;;;;;;;9.25;7.00;;;;;14.94;79.80;100482.03;5059313;28;61934;-74
2021/12/24 07:55:48;;;;;;;;;6.75;6.75;;;;;14.96;80.17;100477.66;5044320;28;61944;-74
2021/12/24 07:58:14;;;;;;;;;10.25;8.50;;;;;14.97;80.28;100478.56;5058386;28;62650;-75
2021/12/24 08:00:41;;;;;;;;;10.00;10.00;;;;;15.01;79.90;100470.72;5054506;28;61838;-74
2021/12/24 08:03:07;;;;;;;;;7.75;7.75;;;;;15.00;79.95;100466.31;5059516;28;62851;-77
2021/12/24 08:05:35;;;;;;;;;9.50;7.00;;;;;15.02;80.22;100453.13;5053049;28;61841;-74
2021/12/24 08:08:02;;;;;;;;;10.25;6.00;;;;;15.00;80.13;100460.13;5049797;28;61807;-74
2021/12/24 08:10:30;;;;;;;;;10.50;8.00;;;;;14.97;80.44;100460.94;5048361;28;61827;-74
2021/12/24 08:12:55;;;;;;;;;6.75;4.75;;;;;15.03;80.28;100463.72;5051790;28;61899;-74
2021/12/24 08:15:21;;;;;;;;;12.00;10.25;;;;;15.04;80.46;100459.31;5043282;28;61925;-75
2021/12/24 08:17:47;;;;;;;;;9.00;8.75;;;;;15.05;80.57;100448.78;5048662;28;61934;-74
2021/12/24 08:20:15;;;;;;;;;11.75;9.75;;;;;15.07;80.18;100460.28;5064284;28;62064;-74
2021/12/24 08:22:40;;;;;;;;;15.25;10.75;;;;;15.10;80.22;100464.72;5060557;28;62953;-75
2021/12/24 08:25:08;;;;;;;;;11.25;8.75;;;;;15.09;80.31;100455.03;5058273;28;62278;-75
2021/12/24 08:27:40;;;;;;;;;6.00;6.00;;;;;15.09;80.16;100452.38;5059905;28;61847;-75
2021/12/24 08:30:06;;;;;;;;;6.75;6.75;;;;;15.10;80.30;100451.50;5048967;28;61962;-75
2021/12/24 08:32:37;;;;;;;;;10.00;8.75;;;;;15.05;80.66;100446.13;5063438;28;61628;-73
2021/12/24 08:35:03;;;;;;;;;11.50;8.00;;;;;15.06;80.64;100445.28;5062786;28;62006;-73
2021/12/24 08:37:29;;;;;;;;;8.75;6.50;;;;;15.12;80.39;100447.16;5055727;28;61732;-74
2021/12/24 08:39:55;;;;;;;;;5.50;3.00;;;;;15.12;80.47;100449.78;5056357;28;61963;-73
2021/12/24 08:42:20;;;;;;;;;9.25;7.75;;;;;15.16;80.17;100449.00;5052336;28;61905;-76
2021/12/24 08:44:45;;;;;;;;;10.00;8.00;;;;;15.13;80.24;100448.94;5047777;28;63979;-76
2021/12/24 08:47:11;;;;;;;;;14.75;8.00;;;;;15.17;80.44;100442.88;5053278;28;61918;-76
2021/12/24 08:49:36;;;;;;;;;9.25;7.75;;;;;15.21;80.10;100441.16;5057158;28;62095;-74
2021/12/24 08:52:04;;;;;;;;;13.75;7.25;;;;;15.32;80.20;100448.44;5061409;28;61771;-74
2021/12/24 08:54:29;;;;;;;;;8.75;7.25;;;;;15.36;80.31;100443.22;5050647;28;63344;-72
2021/12/24 08:56:55;;;;;;;;;12.25;8.75;;;;;15.40;80.08;100453.88;5059699;28;61801;-72
2021/12/24 08:59:23;;;;;;;;;8.00;7.00;;;;;15.44;80.03;100447.78;5053479;28;61921;-73
2021/12/24 09:01:49;;;;;;;;;12.75;9.00;;;;;15.43;79.77;100450.41;5055811;28;61747;-72
2021/12/24 09:04:14;;;;;;;;;11.00;9.75;;;;;15.47;80.06;100444.31;5061466;28;61804;-74
2021/12/24 09:06:40;;;;;;;;;10.50;8.00;;;;;15.51;79.87;100446.13;5062735;28;61753;-73
2021/12/24 09:09:07;;;;;;;;;12.75;10.25;;;;;15.52;79.71;100442.66;5055021;28;63468;-73
2021/12/24 09:11:37;;;;;;;;;10.50;9.00;;;;;15.58;80.05;100449.81;5060789;28;61882;-74
2021/12/24 09:14:03;;;;;;;;;9.50;9.50;;;;;15.57;79.54;100448.91;5059750;28;61730;-73
2021/12/24 09:16:29;;;;;;;;;12.25;10.25;;;;;15.58;79.80;100447.19;5048952;28;62250;-76
2021/12/24 09:19:01;;;;;;;;;10.75;9.50;;;;;15.60;79.62;100453.38;5055576;28;62057;-75
2021/12/24 09:21:28;;;;;;;;;7.00;7.00;;;;;15.66;79.63;100449.09;5070452;28;61833;-77
2021/12/24 09:23:54;;;;;;;;;18.00;11.00;;;;;15.74;79.42;100459.84;5053251;28;62640;-77
2021/12/24 09:26:27;;;;;;;;;9.75;7.00;;;;;15.80;79.15;100448.47;5051105;28;61944;-75
2021/12/24 09:28:53;;;;;;;;;6.25;6.25;;;;;15.78;79.08;100448.44;5054894;28;61977;-80
2021/12/24 09:31:19;;;;;;;;;11.25;10.00;;;;;15.81;79.27;100453.81;5059502;28;61730;-77
2021/12/24 09:33:44;;;;;;;;;9.50;9.50;;;;;15.80;79.12;100457.31;5052766;28;65178;-76
2021/12/24 09:36:10;;;;;;;;;9.75;9.00;;;;;15.80;79.00;100449.34;5049793;28;61995;-74
2021/12/24 09:38:35;;;;;;;;;11.00;9.00;;;;;15.78;79.19;100445.78;5054422;28;61731;-76
2021/12/24 09:41:01;;;;;;;;;11.00;9.25;;;;;15.84;78.92;100443.25;5053510;28;61941;-74
2021/12/24 09:43:28;;;;;;;;;11.75;9.75;;;;;15.88;78.89;100449.50;5051796;28;62121;-74
2021/12/24 09:45:54;;;;;;;;;11.50;9.00;;;;;15.89;78.75;100436.28;5054130;28;62103;-73
2021/12/24 09:48:19;;;;;;;;;9.75;9.00;;;;;16.01;78.50;100442.66;5065221;28;62155;-74
2021/12/24 09:50:46;;;;;;;;;9.50;9.00;;;;;16.07;78.63;100427.78;5071549;27;61812;-74
2021/12/24 09:53:12;;;;;;;;;11.00;8.75;;;;;16.14;78.07;100428.75;5049302;28;62698;-74
2021/12/24 09:55:37;;;;;;;;;8.75;8.75;;;;;16.18;77.86;100422.66;5069180;28;61822;-75
2021/12/24 09:58:03;;;;;;;;;14.00;9.00;;;;;16.19;77.46;100432.34;5056425;28;61809;-75
2021/12/24 10:00:31;;;;;;;;;13.25;9.75;;;;;16.26;77.38;100433.34;5056820;28;62946;-76
2021/12/24 10:02:59;;;;;;;;;12.00;10.00;;;;;16.36;77.65;100432.63;5051916;28;62485;-79
2021/12/24 10:05:30;;;;;;;;;12.00;10.00;;;;;16.44;77.24;100436.28;5047108;28;62708;-76
2021/12/24 10:08:04;;;;;;;;;8.75;8.75;;;;;16.50;77.21;100439.03;5066579;28;61912;-75
2021/12/24 10:10:31;;;;;;;;;13.50;12.00;;;;;16.40;76.83;100439.75;5049768;28;62010;-76
2021/12/24 10:13:38;;;;;;;;;15.25;11.25;;;;;16.40;77.55;100436.22;5067963;28;64623;-81
2021/12/24 10:16:07;;;;;;;;;10.00;8.00;;;;;16.20;77.84;100434.16;5053211;28;61976;-75
2021/12/24 10:18:41;;;;;;;;;12.00;10.00;;;;;16.17;78.01;100430.56;5060782;28;61913;-75
2021/12/24 10:21:20;;;;;;;;;17.25;15.50;;;;;16.09;78.27;100433.09;5057476;28;61874;-75
2021/12/24 10:23:47;;;;;;;;;14.25;12.00;;;;;16.05;78.44;100428.63;5056202;28;62161;-76
2021/12/24 10:26:24;;;;;;;;;11.50;8.25;;;;;16.11;78.33;100420.75;5068020;28;61988;-74
2021/12/24 10:29:03;;;;;;;;;16.00;11.25;;;;;16.13;78.22;100396.09;5060586;28;61879;-75
2021/12/24 10:31:43;;;;;;;;;10.50;9.00;;;;;16.24;78.33;100395.34;5054859;28;61871;-75
2021/12/24 10:34:30;;;;;;;;;7.75;6.25;;;;;16.39;77.67;100406.19;5041376;28;62531;-75
2021/12/24 10:37:01;;;;;;;;;13.25;9.50;;;;;16.55;77.54;100405.53;5060633;28;61923;-76
2021/12/24 10:39:36;;;;;;;;;13.00;10.00;;;;;16.56;77.29;100404.66;5061270;28;61931;-76
2021/12/24 10:42:05;;;;;;;;;12.00;10.00;;;;;16.67;76.68;100398.63;5061815;28;62146;-75
2021/12/24 10:44:34;;;;;;;;;11.00;10.00;;;;;16.74;77.10;100381.94;5077228;28;63821;-75
2021/12/24 10:47:05;;;;;;;;;12.25;11.25;;;;;16.82;76.69;100388.25;5047728;28;61884;-75
2021/12/24 10:54:53;;;;;;;;;14.00;9.75;;;;;17.09;75.75;100378.84;5057746;28;62607;-75
2021/12/24 10:57:23;;;;;;;;;13.00;13.00;;;;;17.11;75.96;100385.94;5060305;28;61852;-77
2021/12/24 10:59:50;;;;;;;;;12.50;10.25;;;;;17.12;75.38;100386.84;5074588;28;62331;-75
2021/12/24 11:02:17;;;;;;;;;16.25;14.75;;;;;17.11;75.76;100375.31;5078337;28;61883;-74
2021/12/24 11:04:43;;;;;;;;;15.50;11.75;;;;;17.13;75.80;100383.31;5056266;28;63643;-75
2021/12/24 11:07:37;;;;;;;;;14.75;12.00;;;;;17.14;75.54;100375.38;5076820;28;61793;-76
2021/12/24 11:10:14;;;;;;;;;16.25;14.25;;;;;17.12;75.86;100355.00;5041740;28;61948;-75
2021/12/24 11:12:48;;;;;;;;;13.50;13.50;;;;;17.14;75.96;100351.50;5042380;28;61855;-74
2021/12/24 11:15:38;;;;;;;;;13.00;10.00;;;;;17.14;75.43;100346.19;5039958;28;63783;-75
2021/12/24 11:18:25;;;;;;;;;12.25;11.00;;;;;17.22;75.70;100348.91;5076651;27;61877;-75
2021/12/24 11:20:58;;;;;;;;;12.00;12.00;;;;;17.25;75.46;100333.03;5062052;28;61932;-75
2021/12/24 11:23:25;;;;;;;;;14.00;9.50;;;;;17.25;75.03;100319.78;5062337;28;61902;-75
2021/12/24 11:25:57;;;;;;;;;13.25;9.25;;;;;17.25;75.19;100322.44;5054816;28;61742;-75
2021/12/24 11:28:25;;;;;;;;;12.00;10.75;;;;;17.23;75.14;100316.22;5056146;28;61849;-75
2021/12/24 11:31:05;;;;;;;;;15.50;9.00;;;;;17.25;75.17;100319.78;5060675;28;62043;-76
2021/12/24 11:33:34;;;;;;;;;21.00;14.25;;;;;17.19;75.33;100321.50;5050397;28;61883;-75
2021/12/24 11:36:03;;;;;;;;;19.25;15.00;;;;;17.18;75.25;100320.56;5060650;28;61971;-75
2021/12/24 11:38:36;;;;;;;;;20.25;16.75;;;;;17.21;75.33;100328.56;5051950;28;61829;-75
2021/12/24 11:41:03;;;;;;;;;15.25;14.75;;;;;17.21;75.77;100325.03;5040880;28;61708;-75
2021/12/24 11:43:33;;;;;;;;;13.75;12.75;;;;;17.21;75.32;100333.88;5041765;28;61964;-75
2021/12/24 11:46:06;;;;;;;;;14.75;11.25;;;;;17.18;75.46;100323.22;5053193;28;61958;-77
2021/12/24 11:48:33;;;;;;;;;19.50;16.50;;;;;17.14;75.47;100330.28;5053639;28;62031;-76
2021/12/24 11:51:00;;;;;;;;;15.75;14.25;;;;;17.09;75.77;100329.31;5070905;28;62291;-77
2021/12/24 11:53:27;;;;;;;;;14.50;11.75;;;;;17.02;75.74;100331.91;5064790;28;62000;-76
2021/12/24 11:55:53;;;;;;;;;13.75;13.50;;;;;17.07;75.96;100336.38;5060872;28;64026;-77
2021/12/24 11:58:20;;;;;;;;;11.00;11.00;;;;;17.11;76.04;100321.41;5064671;28;61854;-75
2021/12/24 12:00:49;;;;;;;;;12.00;12.00;;;;;17.08;75.71;100324.91;5050127;28;62133;-77
2021/12/24 12:03:38;;;;;;;;;15.75;13.25;;;;;17.10;75.57;100331.13;5054201;28;61972;-78
2021/12/24 12:06:11;;;;;;;;;13.25;10.50;;;;;16.99;75.96;100338.09;5051110;28;62109;-76
2021/12/24 12:08:41;;;;;;;;;13.75;9.00;;;;;16.94;76.08;100331.81;5077585;28;62350;-76
2021/12/24 12:11:24;;;;;;;;;15.50;8.00;;;;;16.94;76.01;100331.81;5064941;28;62049;-76
2021/12/24 12:13:52;;;;;;;;;13.50;11.75;;;;;16.92;76.21;100346.81;5064890;28;61928;-76
2021/12/24 12:16:27;;;;;;;;;16.75;11.50;;;;;16.88;76.41;100337.97;5078914;28;63752;-76
2021/12/24 12:22:19;;;;;;;;;19.25;14.25;;;;;16.67;76.79;100319.13;5044686;28;61707;-76
2021/12/24 12:24:57;;;;;;;;;16.75;13.25;;;;;16.82;76.91;100321.09;5053915;28;61982;-75
2021/12/24 12:27:44;;;;;;;;;12.75;12.75;;;;;16.91;76.41;100316.78;5054005;28;61807;-77
2021/12/24 12:30:36;;;;;;;;;15.50;14.25;;;;;16.92;76.40;100321.22;5057810;28;61780;-78
2021/12/24 12:33:09;;;;;;;;;11.75;11.50;;;;;17.01;76.08;100323.06;5055729;28;61962;-79
2021/12/24 12:35:42;;;;;;;;;12.75;11.25;;;;;17.16;76.01;100317.94;5062569;28;61857;-78
2021/12/24 12:38:40;;;;;;;;;15.25;11.50;;;;;17.31;75.22;100317.19;5061637;28;64198;-77
2021/12/24 12:41:34;;;;;;;;;11.25;11.25;;;;;17.36;75.37;100301.31;5072363;28;62087;-76
2021/12/24 12:44:07;;;;;;;;;11.00;10.00;;;;;17.47;74.75;100290.78;5049285;28;61906;-75
2021/12/24 12:46:35;;;;;;;;;18.25;10.50;;;;;17.62;74.69;100288.25;5056740;28;61988;-80
2021/12/24 12:49:04;;;;;;;;;11.50;10.50;;;;;17.73;73.98;100293.63;5053067;28;61769;-77
2021/12/24 12:51:54;;;;;;;;;11.75;9.75;;;;;17.75;73.38;100300.72;5055294;28;62960;-78
2021/12/24 12:54:48;;;;;;;;;20.25;13.00;;;;;17.74;73.36;100296.31;5053058;28;61931;-78
2021/12/24 12:57:14;;;;;;;;;12.00;11.00;;;;;17.66;73.03;100292.72;5063914;28;61858;-76
2021/12/24 13:00:02;;;;;;;;;10.25;9.25;;;;;17.67;73.31;100286.50;5052393;28;62792;-76
2021/12/24 13:05:38;;;;;;;;;14.75;11.25;;;;;17.64;73.40;100275.00;5055527;28;61899;-76